Time;durP1;ratioP1;P1;durP2;ratioP2;P2;SDS_P1;SDS_P2;PMS_P1;PMS_P2;Temp;Humidity;BMP_temperature;BMP_pressure;BME280_temperature;BME280_humidity;BME280_pressure;Samples;Min_cycle;Max_cycle;Signal;HPM_P1;HPM_P2
2023/12/07 00:01:05;;;;;;;0.30;0.20;;;3.00;99.90;;;;;;5092903;28;20218;-79
2023/12/07 00:03:31;;;;;;;0.30;0.20;;;3.00;99.90;;;;;;5093618;28;20449;-79
2023/12/07 00:05:56;;;;;;;0.30;0.20;;;3.00;99.90;;;;;;5092552;28;20310;-79
2023/12/07 00:08:22;;;;;;;0.30;0.20;;;3.00;99.90;;;;;;5093101;28;20952;-79
2023/12/07 00:10:48;;;;;;;0.30;0.30;;;3.10;99.90;;;;;;5092788;28;20224;-78
2023/12/07 00:13:14;;;;;;;0.30;0.20;;;3.10;99.90;;;;;;5093346;28;20254;-78
2023/12/07 00:15:39;;;;;;;0.30;0.20;;;3.10;99.90;;;;;;5092323;28;20176;-79
2023/12/07 00:18:05;;;;;;;0.30;0.20;;;3.10;99.90;;;;;;5091798;28;20204;-77
2023/12/07 00:20:31;;;;;;;0.30;0.30;;;3.00;99.90;;;;;;5090472;28;20435;-79
2023/12/07 00:22:57;;;;;;;0.30;0.20;;;3.10;99.90;;;;;;5092862;28;20470;-77
2023/12/07 00:25:22;;;;;;;0.30;0.20;;;3.00;99.90;;;;;;5092343;28;20522;-77
2023/12/07 00:27:49;;;;;;;0.30;0.30;;;3.00;99.90;;;;;;5092695;28;20224;-77
2023/12/07 00:30:15;;;;;;;0.30;0.30;;;3.10;99.90;;;;;;5091109;28;20233;-78
2023/12/07 00:32:44;;;;;;;0.30;0.30;;;3.10;99.90;;;;;;5092520;28;20315;-78
2023/12/07 00:35:13;;;;;;;0.30;0.20;;;3.10;99.90;;;;;;5092164;28;20505;-79
2023/12/07 00:37:39;;;;;;;0.30;0.20;;;3.10;99.90;;;;;;5091124;28;20184;-77
2023/12/07 00:40:05;;;;;;;0.30;0.20;;;3.10;99.90;;;;;;5090747;28;20230;-78
2023/12/07 00:42:31;;;;;;;0.30;0.20;;;3.10;99.90;;;;;;5092360;28;20255;-78
2023/12/07 00:44:57;;;;;;;0.30;0.20;;;3.10;99.90;;;;;;5092433;28;20204;-78
2023/12/07 00:47:23;;;;;;;0.30;0.30;;;3.10;99.90;;;;;;5091126;28;20184;-77
2023/12/07 00:49:49;;;;;;;0.30;0.20;;;3.10;99.90;;;;;;5090852;28;20231;-77
2023/12/07 00:52:14;;;;;;;0.30;0.30;;;3.10;99.90;;;;;;5091357;28;20195;-77
2023/12/07 00:54:40;;;;;;;0.30;0.30;;;3.10;99.90;;;;;;5090610;28;20200;-79
2023/12/07 00:57:06;;;;;;;0.30;0.30;;;3.10;99.90;;;;;;5092237;28;20317;-77
2023/12/07 00:59:36;;;;;;;0.30;0.20;;;3.10;99.90;;;;;;5092285;28;20188;-77
2023/12/07 01:02:02;;;;;;;0.30;0.20;;;3.10;99.90;;;;;;5090491;28;20216;-77
2023/12/07 01:04:29;;;;;;;0.30;0.30;;;3.20;99.90;;;;;;5090261;28;20207;-79
2023/12/07 01:06:54;;;;;;;0.30;0.20;;;3.20;99.90;;;;;;5091964;28;20259;-79
2023/12/07 01:09:21;;;;;;;0.30;0.20;;;3.20;99.90;;;;;;5090658;28;20334;-78
2023/12/07 01:11:47;;;;;;;0.30;0.20;;;3.20;99.90;;;;;;5091594;28;20157;-77
2023/12/07 01:14:13;;;;;;;0.30;0.30;;;3.30;99.90;;;;;;5090619;28;20284;-77
2023/12/07 01:16:39;;;;;;;0.30;0.30;;;3.30;99.90;;;;;;5090005;28;20377;-77
2023/12/07 01:19:04;;;;;;;0.30;0.30;;;3.20;99.90;;;;;;5091981;28;20204;-78
2023/12/07 01:21:30;;;;;;;0.30;0.30;;;3.20;99.90;;;;;;5089854;28;20200;-78
2023/12/07 01:23:58;;;;;;;0.30;0.20;;;3.20;99.90;;;;;;5090272;28;20287;-79
2023/12/07 01:26:23;;;;;;;0.30;0.30;;;3.30;99.90;;;;;;5091386;28;20698;-79
2023/12/07 01:28:49;;;;;;;0.30;0.20;;;3.20;99.90;;;;;;5091789;28;20262;-79
2023/12/07 01:31:15;;;;;;;0.30;0.30;;;3.30;99.90;;;;;;5091443;28;20538;-79
2023/12/07 01:33:40;;;;;;;0.30;0.20;;;3.30;99.90;;;;;;5091765;28;20211;-78
2023/12/07 01:36:06;;;;;;;0.30;0.30;;;3.30;99.90;;;;;;5090205;28;20519;-78
2023/12/07 01:38:32;;;;;;;0.30;0.30;;;3.30;99.90;;;;;;5091279;28;20640;-79
2023/12/07 01:40:58;;;;;;;0.30;0.20;;;3.30;99.90;;;;;;5089539;28;20469;-79
2023/12/07 01:43:24;;;;;;;0.30;0.30;;;3.30;99.90;;;;;;5091640;28;20267;-79
2023/12/07 01:45:53;;;;;;;0.30;0.30;;;3.30;99.90;;;;;;5091175;28;20243;-78
2023/12/07 01:48:20;;;;;;;0.30;0.30;;;3.30;99.90;;;;;;5091415;28;20193;-78
2023/12/07 01:50:47;;;;;;;0.30;0.30;;;3.30;99.90;;;;;;5090901;28;20172;-78
2023/12/07 01:53:14;;;;;;;0.30;0.30;;;3.30;99.90;;;;;;5090553;28;20216;-78
2023/12/07 01:55:40;;;;;;;0.30;0.20;;;3.30;99.90;;;;;;5090636;28;20271;-78
2023/12/07 01:58:06;;;;;;;0.30;0.30;;;3.30;99.90;;;;;;5090949;28;20303;-77
2023/12/07 02:00:33;;;;;;;0.30;0.20;;;3.20;99.90;;;;;;5090779;28;20555;-78
2023/12/07 02:03:00;;;;;;;0.30;0.20;;;3.20;99.90;;;;;;5090941;28;20729;-78
2023/12/07 02:05:26;;;;;;;0.30;0.30;;;3.20;99.90;;;;;;5090748;28;20308;-77
2023/12/07 02:07:52;;;;;;;0.30;0.20;;;3.20;99.90;;;;;;5089626;28;20208;-78
2023/12/07 02:10:18;;;;;;;0.30;0.20;;;3.20;99.90;;;;;;5090546;28;20183;-77
2023/12/07 02:12:46;;;;;;;0.30;0.30;;;3.20;99.90;;;;;;5090583;28;20168;-78
2023/12/07 02:15:12;;;;;;;0.30;0.20;;;3.20;99.90;;;;;;5090543;28;20625;-79
2023/12/07 02:17:41;;;;;;;0.30;0.20;;;3.20;99.90;;;;;;5090569;28;20280;-77
2023/12/07 02:20:23;;;;;;;0.30;0.20;;;3.20;99.90;;;;;;5090677;28;20420;-78
2023/12/07 02:22:54;;;;;;;0.30;0.20;;;3.20;99.90;;;;;;5090505;28;20231;-77
2023/12/07 02:25:26;;;;;;;0.30;0.20;;;3.20;99.90;;;;;;5088849;28;20165;-77
2023/12/07 02:27:51;;;;;;;0.30;0.30;;;3.30;99.90;;;;;;5090504;28;20645;-77
2023/12/07 02:30:17;;;;;;;0.30;0.20;;;3.30;99.90;;;;;;5090367;28;20260;-77
2023/12/07 02:32:45;;;;;;;0.30;0.30;;;3.30;99.90;;;;;;5089060;28;20245;-78
2023/12/07 02:35:12;;;;;;;0.30;0.30;;;3.20;99.90;;;;;;5088786;28;20188;-79
2023/12/07 02:37:46;;;;;;;0.30;0.30;;;3.30;99.90;;;;;;5089175;28;20203;-78
2023/12/07 02:40:15;;;;;;;0.30;0.20;;;3.30;99.90;;;;;;5090339;28;20543;-77
2023/12/07 02:42:42;;;;;;;0.30;0.30;;;3.30;99.90;;;;;;5088893;28;20642;-78
2023/12/07 02:45:09;;;;;;;0.30;0.20;;;3.30;99.90;;;;;;5089873;28;20182;-78
2023/12/07 02:47:36;;;;;;;0.30;0.20;;;3.30;99.90;;;;;;5088603;28;20176;-77
2023/12/07 02:50:04;;;;;;;0.30;0.20;;;3.30;99.90;;;;;;5088563;28;20180;-79
2023/12/07 02:52:30;;;;;;;0.30;0.20;;;3.30;99.90;;;;;;5088629;28;20180;-79
2023/12/07 02:54:55;;;;;;;0.30;0.30;;;3.30;99.90;;;;;;5089669;28;20189;-78
2023/12/07 02:57:21;;;;;;;0.30;0.20;;;3.30;99.90;;;;;;5088725;28;20395;-77
2023/12/07 02:59:47;;;;;;;0.30;0.30;;;3.30;99.90;;;;;;5088481;28;20195;-78
2023/12/07 03:02:12;;;;;;;0.30;0.30;;;3.40;99.90;;;;;;5089980;28;20299;-77
2023/12/07 03:04:38;;;;;;;0.30;0.30;;;3.40;99.90;;;;;;5088238;28;20692;-78
2023/12/07 03:07:04;;;;;;;0.30;0.20;;;3.40;99.90;;;;;;5089422;28;20630;-77
2023/12/07 03:09:29;;;;;;;0.30;0.20;;;3.40;99.90;;;;;;5089630;28;20249;-77
2023/12/07 03:11:55;;;;;;;0.30;0.20;;;3.40;99.90;;;;;;5089899;28;20172;-78
2023/12/07 03:14:21;;;;;;;0.30;0.30;;;3.40;99.90;;;;;;5090066;28;20196;-77
2023/12/07 03:16:46;;;;;;;0.30;0.30;;;3.40;99.90;;;;;;5089242;28;20315;-79
2023/12/07 03:19:12;;;;;;;0.30;0.20;;;3.40;99.90;;;;;;5089829;28;20196;-79
2023/12/07 03:21:42;;;;;;;0.30;0.30;;;3.40;99.90;;;;;;5089445;28;20204;-78
2023/12/07 03:24:08;;;;;;;0.30;0.20;;;3.40;99.90;;;;;;5089663;28;20558;-79
2023/12/07 03:26:35;;;;;;;0.30;0.20;;;3.40;99.90;;;;;;5088042;28;20587;-78
2023/12/07 03:29:01;;;;;;;0.30;0.20;;;3.40;99.90;;;;;;5092213;28;20287;-79
2023/12/07 03:31:27;;;;;;;0.30;0.30;;;3.40;99.90;;;;;;5092041;28;20187;-78
2023/12/07 03:33:54;;;;;;;0.30;0.30;;;3.40;99.90;;;;;;5093696;28;20685;-78
2023/12/07 03:36:20;;;;;;;0.30;0.20;;;3.40;99.90;;;;;;5093557;28;20169;-78
2023/12/07 03:38:46;;;;;;;0.30;0.20;;;3.40;99.90;;;;;;5092435;28;20249;-79
2023/12/07 03:41:11;;;;;;;0.30;0.20;;;3.40;99.90;;;;;;5092117;28;20439;-77
2023/12/07 03:43:37;;;;;;;0.30;0.30;;;3.40;99.90;;;;;;5093908;28;20516;-77
2023/12/07 03:46:07;;;;;;;0.30;0.20;;;3.40;99.90;;;;;;5091915;28;20261;-77
2023/12/07 03:48:34;;;;;;;0.30;0.30;;;3.40;99.90;;;;;;5093822;28;20533;-78
2023/12/07 03:51:00;;;;;;;0.30;0.20;;;3.40;99.90;;;;;;5092014;28;20180;-78
2023/12/07 03:53:26;;;;;;;0.30;0.30;;;3.50;99.90;;;;;;5093757;28;20212;-79
2023/12/07 03:55:52;;;;;;;0.30;0.20;;;3.50;99.90;;;;;;5092125;28;20269;-77
2023/12/07 03:58:17;;;;;;;0.30;0.30;;;3.40;99.90;;;;;;5093161;28;20192;-79
2023/12/07 04:00:44;;;;;;;0.30;0.30;;;3.40;99.90;;;;;;5092771;28;20435;-79
2023/12/07 04:03:10;;;;;;;0.30;0.20;;;3.40;99.90;;;;;;5091856;28;20196;-79
2023/12/07 04:05:36;;;;;;;0.30;0.30;;;3.40;99.90;;;;;;5092939;28;20709;-78
2023/12/07 04:08:01;;;;;;;0.30;0.30;;;3.40;99.90;;;;;;5092151;28;20227;-79
2023/12/07 04:10:27;;;;;;;0.30;0.20;;;3.40;99.90;;;;;;5091602;28;20633;-78
2023/12/07 04:12:53;;;;;;;0.30;0.20;;;3.40;99.90;;;;;;5093008;28;20649;-78
2023/12/07 04:15:21;;;;;;;0.30;0.30;;;3.40;99.90;;;;;;5091834;28;20264;-79
2023/12/07 04:17:47;;;;;;;0.30;0.30;;;3.40;99.90;;;;;;5092727;28;20315;-79
2023/12/07 04:20:13;;;;;;;0.30;0.20;;;3.50;99.90;;;;;;5092844;28;20260;-78
2023/12/07 04:22:39;;;;;;;0.30;0.20;;;3.50;99.90;;;;;;5093115;28;20735;-78
2023/12/07 04:25:05;;;;;;;0.30;0.30;;;3.50;99.90;;;;;;5091365;28;20173;-78
2023/12/07 04:27:32;;;;;;;0.30;0.30;;;3.50;99.90;;;;;;5091495;28;20236;-77
2023/12/07 04:29:57;;;;;;;0.30;0.30;;;3.50;99.90;;;;;;5092212;28;20173;-77
2023/12/07 04:32:23;;;;;;;0.30;0.30;;;3.50;99.90;;;;;;5092648;28;20180;-79
2023/12/07 04:34:49;;;;;;;0.30;0.30;;;3.50;99.90;;;;;;5092415;28;20192;-78
2023/12/07 04:37:15;;;;;;;0.30;0.30;;;3.50;99.90;;;;;;5092571;28;20168;-79
2023/12/07 04:39:41;;;;;;;0.30;0.20;;;3.50;99.90;;;;;;5091862;28;20669;-78
2023/12/07 04:42:06;;;;;;;0.30;0.20;;;3.50;99.90;;;;;;5092528;28;20900;-79
2023/12/07 04:44:32;;;;;;;0.30;0.20;;;3.60;99.90;;;;;;5092446;28;20387;-77
2023/12/07 04:46:58;;;;;;;0.30;0.20;;;3.50;99.90;;;;;;5092270;28;20176;-78
2023/12/07 04:49:24;;;;;;;0.30;0.20;;;3.50;99.90;;;;;;5091107;28;20193;-78
2023/12/07 04:51:49;;;;;;;0.30;0.30;;;3.50;99.90;;;;;;5090833;28;20222;-77
2023/12/07 04:54:15;;;;;;;0.30;0.20;;;3.50;99.90;;;;;;5090928;28;20586;-78
2023/12/07 04:56:41;;;;;;;0.30;0.20;;;3.50;99.90;;;;;;5092141;28;20177;-78
2023/12/07 04:59:08;;;;;;;0.30;0.20;;;3.50;99.90;;;;;;5091390;28;20322;-78
2023/12/07 05:01:35;;;;;;;0.30;0.20;;;3.50;99.90;;;;;;5090724;28;20201;-79
2023/12/07 05:04:03;;;;;;;0.30;0.20;;;3.50;99.90;;;;;;5090547;28;20196;-79
2023/12/07 05:06:30;;;;;;;0.30;0.20;;;3.40;99.90;;;;;;5091847;28;20169;-79
2023/12/07 05:08:55;;;;;;;0.30;0.20;;;3.50;99.90;;;;;;5091812;28;20192;-78
2023/12/07 05:11:21;;;;;;;0.30;0.20;;;3.50;99.90;;;;;;5089042;28;20597;-79
2023/12/07 05:13:47;;;;;;;0.30;0.20;;;3.50;99.90;;;;;;5089547;28;20203;-79
2023/12/07 05:16:13;;;;;;;0.30;0.30;;;3.50;99.90;;;;;;5087067;28;20224;-78
2023/12/07 05:18:39;;;;;;;0.30;0.20;;;3.50;99.90;;;;;;5088231;28;20786;-79
2023/12/07 05:21:06;;;;;;;0.30;0.20;;;3.50;99.90;;;;;;5078399;28;20303;-77
2023/12/07 05:23:31;;;;;;;0.30;0.20;;;3.50;99.90;;;;;;5093903;28;20232;-79
2023/12/07 05:25:57;;;;;;;0.30;0.20;;;3.50;99.90;;;;;;5085105;28;20967;-77
2023/12/07 05:28:23;;;;;;;0.30;0.20;;;3.50;99.90;;;;;;5075752;28;20603;-77
2023/12/07 05:30:49;;;;;;;0.30;0.20;;;3.50;99.90;;;;;;5079307;28;20554;-78
2023/12/07 05:33:15;;;;;;;0.30;0.20;;;3.50;99.90;;;;;;5077384;28;20215;-77
2023/12/07 05:35:41;;;;;;;0.30;0.30;;;3.50;99.90;;;;;;5077357;28;20391;-78
2023/12/07 05:38:07;;;;;;;0.30;0.20;;;3.50;99.90;;;;;;5078725;28;20203;-79
2023/12/07 05:40:33;;;;;;;0.30;0.30;;;3.50;99.90;;;;;;5075282;28;20176;-79
2023/12/07 05:42:59;;;;;;;0.30;0.30;;;3.50;99.90;;;;;;5074485;28;20568;-78
2023/12/07 05:45:26;;;;;;;0.30;0.20;;;3.50;99.90;;;;;;5079735;28;20192;-77
2023/12/07 05:47:51;;;;;;;0.30;0.28;;;3.50;99.90;;;;;;5079086;28;20255;-77
2023/12/07 05:50:18;;;;;;;0.30;0.20;;;3.50;99.90;;;;;;5077304;28;20678;-78
2023/12/07 05:52:43;;;;;;;0.30;0.20;;;3.50;99.90;;;;;;5076611;28;21015;-78
2023/12/07 05:55:09;;;;;;;0.30;0.30;;;3.40;99.90;;;;;;5100657;28;20214;-78
2023/12/07 05:57:35;;;;;;;0.30;0.20;;;3.40;99.90;;;;;;5091563;28;20645;-77
2023/12/07 06:00:01;;;;;;;0.30;0.20;;;3.40;99.90;;;;;;5089721;28;20477;-78
2023/12/07 06:02:27;;;;;;;0.30;0.30;;;3.40;99.90;;;;;;5088360;28;20441;-77
2023/12/07 06:04:53;;;;;;;0.30;0.20;;;3.40;99.90;;;;;;5084595;28;20620;-77
2023/12/07 06:07:19;;;;;;;0.30;0.20;;;3.40;99.90;;;;;;5094772;28;20201;-79
2023/12/07 06:09:44;;;;;;;0.30;0.20;;;3.40;99.90;;;;;;5094926;28;20200;-77
2023/12/07 06:12:10;;;;;;;0.30;0.20;;;3.40;99.90;;;;;;5088259;28;20213;-78
2023/12/07 06:14:36;;;;;;;0.30;0.20;;;3.40;99.90;;;;;;5092360;28;20196;-78
2023/12/07 06:17:01;;;;;;;0.30;0.20;;;3.50;99.90;;;;;;5093182;28;20277;-78
2023/12/07 06:19:27;;;;;;;0.30;0.20;;;3.50;99.90;;;;;;5090884;28;20218;-76
2023/12/07 06:21:53;;;;;;;0.30;0.20;;;3.50;99.90;;;;;;5092089;28;20825;-78
2023/12/07 06:24:19;;;;;;;0.30;0.20;;;3.40;99.90;;;;;;5093813;28;20243;-77
2023/12/07 06:26:44;;;;;;;0.30;0.20;;;3.40;99.90;;;;;;5088005;28;20317;-77
2023/12/07 06:29:10;;;;;;;0.30;0.20;;;3.40;99.90;;;;;;5089573;28;20920;-79
2023/12/07 06:31:36;;;;;;;0.30;0.20;;;3.40;99.90;;;;;;5089481;28;20219;-77
2023/12/07 06:34:02;;;;;;;0.30;0.20;;;3.40;99.90;;;;;;5091327;28;20279;-78
2023/12/07 06:36:28;;;;;;;0.30;0.20;;;3.40;99.90;;;;;;5076179;28;20183;-78
2023/12/07 06:38:57;;;;;;;0.30;0.20;;;3.40;99.90;;;;;;5086056;28;20204;-78
2023/12/07 06:41:23;;;;;;;0.30;0.20;;;3.40;99.90;;;;;;5075945;28;20534;-77
2023/12/07 06:43:49;;;;;;;0.30;0.30;;;3.40;99.90;;;;;;5075341;28;20203;-78
2023/12/07 06:46:16;;;;;;;0.30;0.20;;;3.40;99.90;;;;;;5089068;28;20388;-78
2023/12/07 06:48:42;;;;;;;0.30;0.20;;;3.40;99.90;;;;;;5086227;28;20758;-77
2023/12/07 06:51:07;;;;;;;0.30;0.20;;;3.50;99.90;;;;;;5092230;28;20351;-78
2023/12/07 06:53:33;;;;;;;0.30;0.20;;;3.40;99.90;;;;;;5086161;28;20223;-78
2023/12/07 06:55:59;;;;;;;0.30;0.30;;;3.50;99.90;;;;;;5100916;27;20181;-79
2023/12/07 06:58:25;;;;;;;0.30;0.20;;;3.50;99.90;;;;;;5088510;28;20220;-78
2023/12/07 07:00:50;;;;;;;0.30;0.20;;;3.50;99.90;;;;;;5082313;28;20989;-79
2023/12/07 07:03:17;;;;;;;0.30;0.20;;;3.50;99.90;;;;;;5089373;28;21003;-78
2023/12/07 07:05:43;;;;;;;0.30;0.20;;;3.50;99.90;;;;;;5096031;28;20520;-78
2023/12/07 07:08:08;;;;;;;0.30;0.20;;;3.50;99.90;;;;;;5085879;28;20415;-78
2023/12/07 07:10:35;;;;;;;0.30;0.30;;;3.50;99.90;;;;;;5090847;28;20198;-77
2023/12/07 07:13:04;;;;;;;0.30;0.20;;;3.50;99.90;;;;;;5090750;28;20214;-76
2023/12/07 07:15:32;;;;;;;0.30;0.20;;;3.50;99.90;;;;;;5078045;28;20188;-77
2023/12/07 07:17:58;;;;;;;0.30;0.20;;;3.50;99.90;;;;;;5086189;28;20243;-78
2023/12/07 07:20:24;;;;;;;0.30;0.20;;;3.50;99.90;;;;;;5081340;28;20822;-77
2023/12/07 07:22:50;;;;;;;0.30;0.30;;;3.50;99.90;;;;;;5080626;28;20636;-77
2023/12/07 07:25:18;;;;;;;0.30;0.20;;;3.50;99.90;;;;;;5085963;28;20164;-79
2023/12/07 07:27:48;;;;;;;0.30;0.20;;;3.50;99.90;;;;;;5086186;28;20506;-79
2023/12/07 07:30:13;;;;;;;0.30;0.20;;;3.50;99.90;;;;;;5080126;28;20175;-78
2023/12/07 07:32:40;;;;;;;0.30;0.20;;;3.50;99.90;;;;;;5087449;28;20229;-77
2023/12/07 07:35:06;;;;;;;0.30;0.20;;;3.50;99.90;;;;;;5079767;28;20445;-79
2023/12/07 07:37:31;;;;;;;0.30;0.20;;;3.50;99.90;;;;;;5078153;28;20193;-80
2023/12/07 07:39:57;;;;;;;0.30;0.20;;;3.50;99.90;;;;;;5102116;28;20644;-78
2023/12/07 07:42:22;;;;;;;0.30;0.20;;;3.60;99.90;;;;;;5087013;28;20252;-79
2023/12/07 07:44:48;;;;;;;0.30;0.20;;;3.60;99.90;;;;;;5089304;28;20271;-77
2023/12/07 07:47:14;;;;;;;0.30;0.20;;;3.60;99.90;;;;;;5081946;28;20197;-77
2023/12/07 07:49:39;;;;;;;0.30;0.20;;;3.60;99.90;;;;;;5086521;28;20208;-77
2023/12/07 07:52:05;;;;;;;0.30;0.20;;;3.60;99.90;;;;;;5085225;28;20264;-78
2023/12/07 07:54:31;;;;;;;0.30;0.20;;;3.70;99.90;;;;;;5081186;28;20204;-79
2023/12/07 07:56:57;;;;;;;0.30;0.20;;;3.70;99.90;;;;;;5081304;28;20535;-78
2023/12/07 07:59:22;;;;;;;0.30;0.20;;;3.70;99.90;;;;;;5074256;28;20511;-77
2023/12/07 08:01:49;;;;;;;0.30;0.30;;;3.70;99.90;;;;;;5097727;28;20696;-79
2023/12/07 08:04:15;;;;;;;0.30;0.20;;;3.70;99.90;;;;;;5079979;28;20216;-77
2023/12/07 08:06:41;;;;;;;0.30;0.20;;;3.80;99.90;;;;;;5089914;28;20185;-76
2023/12/07 08:09:09;;;;;;;0.30;0.20;;;3.80;99.90;;;;;;5080062;28;20573;-79
2023/12/07 08:11:35;;;;;;;0.30;0.20;;;3.70;99.90;;;;;;5076686;28;20656;-78
2023/12/07 08:14:01;;;;;;;0.30;0.20;;;3.80;99.90;;;;;;5074320;28;20312;-78
2023/12/07 08:16:27;;;;;;;0.30;0.20;;;3.80;99.90;;;;;;5082501;28;20534;-79
2023/12/07 08:18:53;;;;;;;0.30;0.30;;;3.80;99.90;;;;;;5085703;28;20751;-77
2023/12/07 08:21:21;;;;;;;0.30;0.20;;;3.80;99.90;;;;;;5091964;28;20338;-78
2023/12/07 08:23:47;;;;;;;0.30;0.20;;;3.80;99.90;;;;;;5082324;28;20463;-79
2023/12/07 08:26:14;;;;;;;0.30;0.20;;;3.80;99.90;;;;;;5090667;28;20172;-81
2023/12/07 08:28:43;;;;;;;0.30;0.20;;;3.80;99.90;;;;;;5086999;28;20192;-79
2023/12/07 08:31:09;;;;;;;0.30;0.20;;;3.80;99.90;;;;;;5096168;28;20176;-79
2023/12/07 08:33:35;;;;;;;0.30;0.20;;;3.80;99.90;;;;;;5089666;28;20219;-82
2023/12/07 08:36:02;;;;;;;0.30;0.20;;;3.80;99.90;;;;;;5088675;28;20185;-79
2023/12/07 08:38:28;;;;;;;0.30;0.20;;;3.80;99.90;;;;;;5084228;28;20212;-75
2023/12/07 08:40:53;;;;;;;0.30;0.20;;;3.80;99.90;;;;;;5090356;28;20200;-81
2023/12/07 08:43:24;;;;;;;0.30;0.20;;;3.80;99.90;;;;;;5090215;28;20424;-76
2023/12/07 08:45:51;;;;;;;0.30;0.20;;;3.80;99.90;;;;;;5083614;28;20161;-77
2023/12/07 08:48:19;;;;;;;0.30;0.20;;;3.80;99.90;;;;;;5087593;28;20742;-78
2023/12/07 08:50:44;;;;;;;0.30;0.20;;;3.80;99.90;;;;;;5091479;28;20450;-79
2023/12/07 08:53:10;;;;;;;0.30;0.20;;;3.80;99.90;;;;;;5084936;28;20536;-79
2023/12/07 08:55:36;;;;;;;0.30;0.20;;;3.90;99.90;;;;;;5097451;28;20208;-80
2023/12/07 08:58:04;;;;;;;0.30;0.20;;;3.90;99.90;;;;;;5084649;28;20540;-79
2023/12/07 09:00:31;;;;;;;0.30;0.20;;;4.00;99.90;;;;;;5074386;28;20766;-78
2023/12/07 09:02:57;;;;;;;0.30;0.20;;;4.00;99.90;;;;;;5078562;28;20210;-78
2023/12/07 09:05:23;;;;;;;0.30;0.20;;;4.00;99.90;;;;;;5070011;28;20257;-77
2023/12/07 09:07:48;;;;;;;11.30;10.93;;;4.00;99.90;;;;;;5084434;28;20195;-80
2023/12/07 09:10:14;;;;;;;0.30;0.20;;;4.10;99.90;;;;;;5083071;28;20173;-81
2023/12/07 09:12:40;;;;;;;0.30;0.20;;;4.10;99.90;;;;;;5100889;27;20671;-77
2023/12/07 09:15:07;;;;;;;0.30;0.20;;;4.10;99.90;;;;;;5090106;28;20929;-81
2023/12/07 09:17:33;;;;;;;0.30;0.30;;;4.10;99.90;;;;;;5081047;28;20562;-81
2023/12/07 09:19:58;;;;;;;0.30;0.20;;;4.10;99.90;;;;;;5084358;28;20263;-81
2023/12/07 09:22:25;;;;;;;0.30;0.20;;;4.10;99.90;;;;;;5084396;28;20239;-80
2023/12/07 09:24:50;;;;;;;0.30;0.20;;;4.10;99.90;;;;;;5087901;28;20263;-81
2023/12/07 09:27:16;;;;;;;0.30;0.20;;;4.10;99.90;;;;;;5083521;28;20973;-80
2023/12/07 09:29:42;;;;;;;0.30;0.20;;;4.10;99.90;;;;;;5075240;28;20960;-76
2023/12/07 09:32:08;;;;;;;0.30;0.20;;;4.10;99.90;;;;;;5071073;28;20184;-77
2023/12/07 09:34:34;;;;;;;0.30;0.20;;;4.10;99.90;;;;;;5087949;27;20204;-83
2023/12/07 09:37:09;;;;;;;0.30;0.20;;;4.10;99.90;;;;;;5073940;28;20399;-76
2023/12/07 09:39:35;;;;;;;0.30;0.20;;;4.10;99.90;;;;;;5074183;28;20489;-82
2023/12/07 09:42:01;;;;;;;0.30;0.20;;;4.10;99.90;;;;;;5073017;28;20230;-77
2023/12/07 09:44:27;;;;;;;0.30;0.20;;;4.10;99.90;;;;;;5073203;28;20208;-76
2023/12/07 09:46:54;;;;;;;0.30;0.20;;;4.00;99.90;;;;;;5068396;28;20211;-76
2023/12/07 09:49:20;;;;;;;0.30;0.20;;;4.00;99.90;;;;;;5070505;28;20200;-78
2023/12/07 09:51:47;;;;;;;0.30;0.30;;;4.00;99.90;;;;;;5071430;28;20176;-79
2023/12/07 09:54:13;;;;;;;0.30;0.20;;;4.00;99.90;;;;;;5071034;28;20210;-80
2023/12/07 09:56:39;;;;;;;0.30;0.20;;;4.00;99.90;;;;;;5068133;28;20654;-76
2023/12/07 09:59:07;;;;;;;0.30;0.20;;;4.00;99.90;;;;;;5072700;28;20547;-77
2023/12/07 10:01:35;;;;;;;0.30;0.20;;;4.00;99.90;;;;;;5081528;28;20635;-75
2023/12/07 10:04:17;;;;;;;0.30;0.30;;;4.00;99.90;;;;;;5092832;28;20627;-77
2023/12/07 10:06:47;;;;;;;0.30;0.20;;;4.00;99.90;;;;;;5086310;28;20415;-81
2023/12/07 10:09:14;;;;;;;0.30;0.20;;;3.90;99.90;;;;;;5084018;28;20603;-83
2023/12/07 10:11:41;;;;;;;0.30;0.20;;;3.90;99.90;;;;;;5096111;27;20250;-80
2023/12/07 10:14:07;;;;;;;0.30;0.20;;;3.90;99.90;;;;;;5088203;28;20200;-80
2023/12/07 10:16:36;;;;;;;0.30;0.20;;;3.90;99.90;;;;;;5082776;28;20231;-81
2023/12/07 10:19:17;;;;;;;0.30;0.20;;;3.90;99.90;;;;;;5088307;28;20208;-77
2023/12/07 10:21:44;;;;;;;0.30;0.20;;;3.90;99.90;;;;;;5075877;28;20239;-78
2023/12/07 10:24:11;;;;;;;0.30;0.20;;;3.90;99.90;;;;;;5075494;28;20284;-79
2023/12/07 10:26:40;;;;;;;0.30;0.20;;;3.90;99.90;;;;;;5079443;28;20175;-79
2023/12/07 10:29:05;;;;;;;0.30;0.25;;;3.90;99.90;;;;;;5087831;28;21002;-80
2023/12/07 10:31:34;;;;;;;0.30;0.20;;;3.90;99.90;;;;;;5089678;28;20613;-77
2023/12/07 10:34:00;;;;;;;0.30;0.20;;;3.90;99.90;;;;;;5089430;28;20204;-80
2023/12/07 10:36:26;;;;;;;0.30;0.20;;;3.90;99.90;;;;;;5092485;28;20184;-79
2023/12/07 10:38:53;;;;;;;0.30;0.20;;;3.90;99.90;;;;;;5087824;28;20530;-77
2023/12/07 10:41:24;;;;;;;0.30;0.20;;;3.90;99.90;;;;;;5086994;28;20235;-80
2023/12/07 10:44:00;;;;;;;0.30;0.20;;;3.90;99.90;;;;;;5082616;28;20293;-76
2023/12/07 10:46:26;;;;;;;0.30;0.20;;;3.90;99.90;;;;;;5082846;28;20168;-80
2023/12/07 10:49:07;;;;;;;0.30;0.20;;;3.90;99.90;;;;;;5075991;28;20207;-79
2023/12/07 10:51:45;;;;;;;0.30;0.20;;;3.90;99.90;;;;;;5086420;28;20520;-77
2023/12/07 10:54:16;;;;;;;0.30;0.20;;;3.90;99.90;;;;;;5085711;28;20211;-80
2023/12/07 10:56:47;;;;;;;0.30;0.20;;;3.90;99.90;;;;;;5078599;28;20179;-77
2023/12/07 10:59:14;;;;;;;0.30;0.20;;;3.90;99.90;;;;;;5076926;28;20506;-80
2023/12/07 11:01:42;;;;;;;0.30;0.20;;;3.90;99.90;;;;;;5084687;28;20274;-80
2023/12/07 11:04:12;;;;;;;0.30;0.20;;;3.90;99.90;;;;;;5094938;28;20316;-80
2023/12/07 11:06:40;;;;;;;0.30;0.20;;;4.00;99.90;;;;;;5088870;28;20406;-77
2023/12/07 11:09:09;;;;;;;0.30;0.20;;;4.00;99.90;;;;;;5076303;28;20222;-80
2023/12/07 11:11:52;;;;;;;0.30;0.20;;;4.00;99.90;;;;;;5076805;28;20275;-76
2023/12/07 11:14:19;;;;;;;0.30;0.20;;;4.00;99.90;;;;;;5078584;28;20236;-78
2023/12/07 11:16:46;;;;;;;0.30;0.20;;;4.00;99.90;;;;;;5085950;28;20231;-80
2023/12/07 11:19:33;;;;;;;0.30;0.20;;;4.00;99.90;;;;;;5086498;28;20563;-78
2023/12/07 11:22:04;;;;;;;0.30;0.20;;;4.00;99.90;;;;;;5078729;28;20204;-81
2023/12/07 11:24:30;;;;;;;0.30;0.20;;;4.00;99.90;;;;;;5078969;28;20200;-78
2023/12/07 11:26:56;;;;;;;0.30;0.30;;;4.00;99.90;;;;;;5078487;28;20210;-80
2023/12/07 11:29:25;;;;;;;0.30;0.20;;;4.10;99.90;;;;;;5085560;28;20219;-78
2023/12/07 11:31:52;;;;;;;0.30;0.20;;;4.00;99.90;;;;;;5076276;28;20712;-80
2023/12/07 11:34:52;;;;;;;0.30;0.20;;;4.10;99.90;;;;;;5077657;28;20196;-80
2023/12/07 11:37:17;;;;;;;0.30;0.20;;;4.10;99.90;;;;;;5064068;28;20203;-81
2023/12/07 11:39:46;;;;;;;0.30;0.20;;;4.10;99.90;;;;;;5085369;28;20677;-78
2023/12/07 11:42:19;;;;;;;0.30;0.20;;;4.10;99.90;;;;;;5090290;28;20692;-80
2023/12/07 11:44:51;;;;;;;0.30;0.20;;;4.10;99.90;;;;;;5086307;28;20208;-79
2023/12/07 11:47:20;;;;;;;0.30;0.20;;;4.10;99.90;;;;;;5084974;28;20258;-79
2023/12/07 11:49:46;;;;;;;0.30;0.20;;;4.20;99.90;;;;;;5084899;28;20458;-78
2023/12/07 11:52:21;;;;;;;0.30;0.20;;;4.20;99.90;;;;;;5089488;28;20561;-81
2023/12/07 11:54:49;;;;;;;0.30;0.20;;;4.20;99.90;;;;;;5079042;28;20395;-78
2023/12/07 11:57:16;;;;;;;0.30;0.20;;;4.20;99.90;;;;;;5073265;28;20259;-80
2023/12/07 11:59:45;;;;;;;0.30;0.20;;;4.20;99.90;;;;;;5074502;28;21620;-81
2023/12/07 12:02:14;;;;;;;0.30;0.20;;;4.20;99.90;;;;;;5074457;28;20258;-80
2023/12/07 12:04:43;;;;;;;0.30;0.20;;;4.20;99.90;;;;;;5069541;28;20721;-81
2023/12/07 12:07:09;;;;;;;0.30;0.20;;;4.20;99.90;;;;;;5072188;28;20213;-81
2023/12/07 12:09:34;;;;;;;0.30;0.20;;;4.20;99.90;;;;;;5082571;28;20405;-80
2023/12/07 12:12:01;;;;;;;0.30;0.20;;;4.20;99.90;;;;;;5080236;28;20213;-78
2023/12/07 12:14:28;;;;;;;0.30;0.20;;;4.20;99.90;;;;;;5078074;28;20445;-81
2023/12/07 12:16:55;;;;;;;0.30;0.20;;;4.20;99.90;;;;;;5078617;28;20247;-78
2023/12/07 12:19:22;;;;;;;0.30;0.20;;;4.20;99.90;;;;;;5080784;28;20196;-80
2023/12/07 12:21:48;;;;;;;0.30;0.20;;;4.20;99.90;;;;;;5081511;28;20519;-80
2023/12/07 12:24:14;;;;;;;0.30;0.30;;;4.20;99.90;;;;;;5087735;28;20204;-79
2023/12/07 12:26:42;;;;;;;0.30;0.20;;;4.20;99.90;;;;;;5081437;28;20665;-80
2023/12/07 12:29:09;;;;;;;0.30;0.20;;;4.30;99.90;;;;;;5073008;28;20425;-78
2023/12/07 12:31:35;;;;;;;0.30;0.30;;;4.30;99.90;;;;;;5084364;28;20199;-80
2023/12/07 12:34:02;;;;;;;0.30;0.20;;;4.30;99.90;;;;;;5084540;28;20218;-79
2023/12/07 12:36:29;;;;;;;0.30;0.20;;;4.30;99.90;;;;;;5087165;28;20363;-81
2023/12/07 12:38:55;;;;;;;0.30;0.20;;;4.20;99.90;;;;;;5086852;28;20289;-79
2023/12/07 12:41:22;;;;;;;0.30;0.20;;;4.20;99.90;;;;;;5081974;28;21680;-81
2023/12/07 12:43:49;;;;;;;0.30;0.20;;;4.20;99.90;;;;;;5096285;27;20353;-78
2023/12/07 12:46:16;;;;;;;0.30;0.20;;;4.20;99.90;;;;;;5083235;28;20214;-81
2023/12/07 12:49:00;;;;;;;0.30;0.20;;;4.20;99.90;;;;;;5082148;28;20200;-78
2023/12/07 12:51:28;;;;;;;0.30;0.20;;;4.20;99.90;;;;;;5083069;28;20339;-79
2023/12/07 12:53:55;;;;;;;0.30;0.20;;;4.20;99.90;;;;;;5080879;28;20196;-81
2023/12/07 12:56:22;;;;;;;0.30;0.20;;;4.20;99.90;;;;;;5080840;28;20941;-80